sensor_id;sensor_type;location;lat;lon;timestamp;P1;durP1;ratioP1;P2;durP2;ratioP2
25391;SDS011;13329;48.402;11.718;2022-07-23T00:00:42;9.70;;;5.45;;
25391;SDS011;13329;48.402;11.718;2022-07-23T00:03:07;7.83;;;5.27;;
25391;SDS011;13329;48.402;11.718;2022-07-23T00:05:32;7.13;;;4.73;;
25391;SDS011;13329;48.402;11.718;2022-07-23T00:07:57;7.10;;;5.07;;
25391;SDS011;13329;48.402;11.718;2022-07-23T00:10:23;8.87;;;5.13;;
25391;SDS011;13329;48.402;11.718;2022-07-23T00:12:48;10.87;;;5.73;;
25391;SDS011;13329;48.402;11.718;2022-07-23T00:15:13;8.05;;;4.97;;
25391;SDS011;13329;48.402;11.718;2022-07-23T00:17:38;10.07;;;5.70;;
25391;SDS011;13329;48.402;11.718;2022-07-23T00:20:03;7.43;;;5.10;;
25391;SDS011;13329;48.402;11.718;2022-07-23T00:22:29;8.05;;;5.30;;
25391;SDS011;13329;48.402;11.718;2022-07-23T00:24:55;9.07;;;5.18;;
25391;SDS011;13329;48.402;11.718;2022-07-23T00:27:20;9.38;;;4.97;;
25391;SDS011;13329;48.402;11.718;2022-07-23T00:29:45;7.67;;;5.20;;
25391;SDS011;13329;48.402;11.718;2022-07-23T00:32:10;7.97;;;5.40;;
25391;SDS011;13329;48.402;11.718;2022-07-23T00:34:35;8.70;;;5.25;;
25391;SDS011;13329;48.402;11.718;2022-07-23T00:37:00;9.83;;;6.13;;
25391;SDS011;13329;48.402;11.718;2022-07-23T00:39:26;8.80;;;5.33;;
25391;SDS011;13329;48.402;11.718;2022-07-23T00:41:51;11.23;;;5.73;;
25391;SDS011;13329;48.402;11.718;2022-07-23T00:46:48;10.40;;;5.87;;
25391;SDS011;13329;48.402;11.718;2022-07-23T00:49:14;9.00;;;5.33;;
25391;SDS011;13329;48.402;11.718;2022-07-23T00:51:39;10.03;;;5.53;;
25391;SDS011;13329;48.402;11.718;2022-07-23T00:54:04;10.77;;;5.30;;
25391;SDS011;13329;48.402;11.718;2022-07-23T00:56:29;10.13;;;5.80;;
25391;SDS011;13329;48.402;11.718;2022-07-23T00:58:55;9.85;;;5.53;;
25391;SDS011;13329;48.402;11.718;2022-07-23T01:01:21;7.25;;;4.72;;
25391;SDS011;13329;48.402;11.718;2022-07-23T01:03:46;8.20;;;5.27;;
25391;SDS011;13329;48.402;11.718;2022-07-23T01:06:11;9.98;;;5.80;;
25391;SDS011;13329;48.402;11.718;2022-07-23T01:08:36;10.23;;;6.00;;
25391;SDS011;13329;48.402;11.718;2022-07-23T01:11:01;8.37;;;5.57;;
25391;SDS011;13329;48.402;11.718;2022-07-23T01:13:27;7.77;;;5.03;;
25391;SDS011;13329;48.402;11.718;2022-07-23T01:15:52;10.43;;;5.90;;
25391;SDS011;13329;48.402;11.718;2022-07-23T01:18:17;8.07;;;4.90;;
25391;SDS011;13329;48.402;11.718;2022-07-23T01:20:42;8.40;;;5.13;;
25391;SDS011;13329;48.402;11.718;2022-07-23T01:23:07;9.07;;;3.63;;
25391;SDS011;13329;48.402;11.718;2022-07-23T01:25:32;10.37;;;6.00;;
25391;SDS011;13329;48.402;11.718;2022-07-23T01:27:58;11.77;;;6.03;;
25391;SDS011;13329;48.402;11.718;2022-07-23T01:30:23;9.23;;;5.60;;
25391;SDS011;13329;48.402;11.718;2022-07-23T01:32:48;9.25;;;5.68;;
25391;SDS011;13329;48.402;11.718;2022-07-23T01:35:13;7.17;;;3.80;;
25391;SDS011;13329;48.402;11.718;2022-07-23T01:37:38;7.33;;;4.60;;
25391;SDS011;13329;48.402;11.718;2022-07-23T01:40:04;8.20;;;4.57;;
25391;SDS011;13329;48.402;11.718;2022-07-23T01:42:29;6.22;;;3.55;;
25391;SDS011;13329;48.402;11.718;2022-07-23T01:44:54;4.93;;;3.17;;
25391;SDS011;13329;48.402;11.718;2022-07-23T01:47:20;7.97;;;3.70;;
25391;SDS011;13329;48.402;11.718;2022-07-23T01:49:45;6.83;;;3.63;;
25391;SDS011;13329;48.402;11.718;2022-07-23T01:52:10;5.20;;;2.37;;
25391;SDS011;13329;48.402;11.718;2022-07-23T01:54:36;7.18;;;3.35;;
25391;SDS011;13329;48.402;11.718;2022-07-23T01:57:01;5.93;;;3.47;;
25391;SDS011;13329;48.402;11.718;2022-07-23T01:59:27;5.27;;;3.53;;
25391;SDS011;13329;48.402;11.718;2022-07-23T02:01:52;6.30;;;3.17;;
25391;SDS011;13329;48.402;11.718;2022-07-23T02:04:18;7.57;;;4.20;;
25391;SDS011;13329;48.402;11.718;2022-07-23T02:06:43;7.03;;;3.70;;
25391;SDS011;13329;48.402;11.718;2022-07-23T02:09:08;7.00;;;4.03;;
25391;SDS011;13329;48.402;11.718;2022-07-23T02:11:34;5.87;;;4.30;;
25391;SDS011;13329;48.402;11.718;2022-07-23T02:13:59;7.35;;;4.75;;
25391;SDS011;13329;48.402;11.718;2022-07-23T02:16:24;8.80;;;4.32;;
25391;SDS011;13329;48.402;11.718;2022-07-23T02:18:49;9.23;;;4.25;;
25391;SDS011;13329;48.402;11.718;2022-07-23T02:21:14;9.87;;;4.90;;
25391;SDS011;13329;48.402;11.718;2022-07-23T02:23:39;9.63;;;5.33;;
25391;SDS011;13329;48.402;11.718;2022-07-23T02:26:05;8.90;;;4.80;;
25391;SDS011;13329;48.402;11.718;2022-07-23T02:28:30;10.47;;;5.63;;
25391;SDS011;13329;48.402;11.718;2022-07-23T02:30:55;10.53;;;5.20;;
25391;SDS011;13329;48.402;11.718;2022-07-23T02:33:20;9.00;;;4.87;;
25391;SDS011;13329;48.402;11.718;2022-07-23T02:35:45;8.57;;;4.63;;
25391;SDS011;13329;48.402;11.718;2022-07-23T02:38:10;11.30;;;4.03;;
25391;SDS011;13329;48.402;11.718;2022-07-23T02:40:36;10.47;;;4.10;;
25391;SDS011;13329;48.402;11.718;2022-07-23T02:43:01;8.07;;;4.22;;
25391;SDS011;13329;48.402;11.718;2022-07-23T02:45:26;5.65;;;3.60;;
25391;SDS011;13329;48.402;11.718;2022-07-23T02:47:51;6.07;;;3.70;;
25391;SDS011;13329;48.402;11.718;2022-07-23T02:50:17;6.80;;;4.20;;
25391;SDS011;13329;48.402;11.718;2022-07-23T02:52:42;6.73;;;4.00;;
25391;SDS011;13329;48.402;11.718;2022-07-23T02:55:07;5.30;;;3.58;;
25391;SDS011;13329;48.402;11.718;2022-07-23T02:57:32;8.13;;;4.00;;
25391;SDS011;13329;48.402;11.718;2022-07-23T02:59:58;9.23;;;3.95;;
25391;SDS011;13329;48.402;11.718;2022-07-23T03:02:23;6.22;;;3.55;;
25391;SDS011;13329;48.402;11.718;2022-07-23T03:04:48;11.00;;;3.90;;
25391;SDS011;13329;48.402;11.718;2022-07-23T03:07:15;9.82;;;3.90;;
25391;SDS011;13329;48.402;11.718;2022-07-23T03:09:40;7.93;;;3.65;;
25391;SDS011;13329;48.402;11.718;2022-07-23T03:12:05;5.30;;;2.90;;
25391;SDS011;13329;48.402;11.718;2022-07-23T03:14:30;8.00;;;3.95;;
25391;SDS011;13329;48.402;11.718;2022-07-23T03:16:55;8.63;;;3.90;;
25391;SDS011;13329;48.402;11.718;2022-07-23T03:19:21;8.93;;;3.93;;
25391;SDS011;13329;48.402;11.718;2022-07-23T03:21:46;6.63;;;3.47;;
25391;SDS011;13329;48.402;11.718;2022-07-23T03:24:11;8.18;;;2.95;;
25391;SDS011;13329;48.402;11.718;2022-07-23T03:26:36;5.67;;;3.27;;
25391;SDS011;13329;48.402;11.718;2022-07-23T03:29:01;7.53;;;3.73;;
25391;SDS011;13329;48.402;11.718;2022-07-23T03:31:28;6.22;;;3.90;;
25391;SDS011;13329;48.402;11.718;2022-07-23T03:33:53;8.70;;;4.35;;
25391;SDS011;13329;48.402;11.718;2022-07-23T03:36:18;10.30;;;4.60;;
25391;SDS011;13329;48.402;11.718;2022-07-23T03:38:44;6.17;;;3.23;;
25391;SDS011;13329;48.402;11.718;2022-07-23T03:41:09;8.50;;;3.63;;
25391;SDS011;13329;48.402;11.718;2022-07-23T03:43:34;5.93;;;3.27;;
25391;SDS011;13329;48.402;11.718;2022-07-23T03:45:59;6.60;;;3.17;;
25391;SDS011;13329;48.402;11.718;2022-07-23T03:48:24;7.05;;;3.35;;
25391;SDS011;13329;48.402;11.718;2022-07-23T03:50:49;9.15;;;4.00;;
25391;SDS011;13329;48.402;11.718;2022-07-23T03:53:15;7.67;;;4.30;;
25391;SDS011;13329;48.402;11.718;2022-07-23T03:55:40;9.02;;;3.45;;
25391;SDS011;13329;48.402;11.718;2022-07-23T03:58:05;5.23;;;3.33;;
25391;SDS011;13329;48.402;11.718;2022-07-23T04:00:30;7.70;;;3.27;;
25391;SDS011;13329;48.402;11.718;2022-07-23T04:02:55;8.47;;;3.70;;
25391;SDS011;13329;48.402;11.718;2022-07-23T04:05:20;9.17;;;4.00;;
25391;SDS011;13329;48.402;11.718;2022-07-23T04:07:46;6.50;;;3.40;;
25391;SDS011;13329;48.402;11.718;2022-07-23T04:10:11;5.93;;;3.60;;
25391;SDS011;13329;48.402;11.718;2022-07-23T04:12:36;6.70;;;4.22;;
25391;SDS011;13329;48.402;11.718;2022-07-23T04:15:01;6.87;;;3.60;;
25391;SDS011;13329;48.402;11.718;2022-07-23T04:17:26;8.17;;;4.40;;
25391;SDS011;13329;48.402;11.718;2022-07-23T04:19:52;8.07;;;4.57;;
25391;SDS011;13329;48.402;11.718;2022-07-23T04:22:17;11.05;;;4.68;;
25391;SDS011;13329;48.402;11.718;2022-07-23T04:24:42;7.00;;;4.05;;
25391;SDS011;13329;48.402;11.718;2022-07-23T04:27:07;6.25;;;3.42;;
25391;SDS011;13329;48.402;11.718;2022-07-23T04:29:32;8.73;;;4.20;;
25391;SDS011;13329;48.402;11.718;2022-07-23T04:31:57;8.73;;;4.22;;
25391;SDS011;13329;48.402;11.718;2022-07-23T04:34:23;8.47;;;4.40;;
25391;SDS011;13329;48.402;11.718;2022-07-23T04:36:49;9.02;;;4.22;;
25391;SDS011;13329;48.402;11.718;2022-07-23T04:39:14;6.88;;;3.60;;
25391;SDS011;13329;48.402;11.718;2022-07-23T04:41:39;5.97;;;3.60;;
25391;SDS011;13329;48.402;11.718;2022-07-23T04:44:04;6.30;;;3.93;;
25391;SDS011;13329;48.402;11.718;2022-07-23T04:46:29;8.20;;;4.33;;
25391;SDS011;13329;48.402;11.718;2022-07-23T04:48:55;6.03;;;3.70;;
25391;SDS011;13329;48.402;11.718;2022-07-23T04:51:20;6.07;;;3.60;;
25391;SDS011;13329;48.402;11.718;2022-07-23T04:53:45;7.13;;;4.33;;
25391;SDS011;13329;48.402;11.718;2022-07-23T04:56:10;6.97;;;3.60;;
25391;SDS011;13329;48.402;11.718;2022-07-23T04:58:35;6.85;;;3.47;;
25391;SDS011;13329;48.402;11.718;2022-07-23T05:01:01;5.75;;;3.55;;
25391;SDS011;13329;48.402;11.718;2022-07-23T05:03:26;5.43;;;3.45;;
25391;SDS011;13329;48.402;11.718;2022-07-23T05:05:51;5.32;;;3.30;;
25391;SDS011;13329;48.402;11.718;2022-07-23T05:08:17;5.28;;;3.20;;
25391;SDS011;13329;48.402;11.718;2022-07-23T05:10:42;5.75;;;3.17;;
25391;SDS011;13329;48.402;11.718;2022-07-23T05:13:07;7.13;;;3.40;;
25391;SDS011;13329;48.402;11.718;2022-07-23T05:15:32;4.33;;;3.30;;
25391;SDS011;13329;48.402;11.718;2022-07-23T05:17:57;8.57;;;3.63;;
25391;SDS011;13329;48.402;11.718;2022-07-23T05:20:23;6.72;;;3.63;;
25391;SDS011;13329;48.402;11.718;2022-07-23T05:22:48;5.70;;;3.37;;
25391;SDS011;13329;48.402;11.718;2022-07-23T05:25:13;6.87;;;3.40;;
25391;SDS011;13329;48.402;11.718;2022-07-23T05:27:38;5.80;;;3.10;;
25391;SDS011;13329;48.402;11.718;2022-07-23T05:30:03;5.40;;;3.60;;
25391;SDS011;13329;48.402;11.718;2022-07-23T05:32:30;9.85;;;4.07;;
25391;SDS011;13329;48.402;11.718;2022-07-23T05:34:56;5.22;;;3.50;;
25391;SDS011;13329;48.402;11.718;2022-07-23T05:37:21;5.70;;;3.50;;
25391;SDS011;13329;48.402;11.718;2022-07-23T05:39:47;8.07;;;3.70;;
25391;SDS011;13329;48.402;11.718;2022-07-23T05:42:12;4.77;;;3.20;;
25391;SDS011;13329;48.402;11.718;2022-07-23T05:44:37;4.95;;;3.47;;
25391;SDS011;13329;48.402;11.718;2022-07-23T05:47:02;5.47;;;3.75;;
25391;SDS011;13329;48.402;11.718;2022-07-23T05:49:27;5.80;;;3.33;;
25391;SDS011;13329;48.402;11.718;2022-07-23T05:51:52;5.43;;;3.63;;
25391;SDS011;13329;48.402;11.718;2022-07-23T05:54:18;6.47;;;3.43;;
25391;SDS011;13329;48.402;11.718;2022-07-23T05:56:43;7.68;;;3.70;;
25391;SDS011;13329;48.402;11.718;2022-07-23T05:59:08;6.77;;;3.37;;
25391;SDS011;13329;48.402;11.718;2022-07-23T06:01:34;5.70;;;3.97;;
25391;SDS011;13329;48.402;11.718;2022-07-23T06:03:59;7.10;;;3.47;;
25391;SDS011;13329;48.402;11.718;2022-07-23T06:06:24;6.13;;;3.73;;
25391;SDS011;13329;48.402;11.718;2022-07-23T06:08:49;4.97;;;3.55;;
25391;SDS011;13329;48.402;11.718;2022-07-23T06:11:14;6.53;;;4.18;;
25391;SDS011;13329;48.402;11.718;2022-07-23T06:13:39;7.20;;;3.40;;
25391;SDS011;13329;48.402;11.718;2022-07-23T06:16:05;7.07;;;4.27;;
25391;SDS011;13329;48.402;11.718;2022-07-23T06:18:30;7.87;;;4.23;;
25391;SDS011;13329;48.402;11.718;2022-07-23T06:20:55;6.43;;;3.93;;
25391;SDS011;13329;48.402;11.718;2022-07-23T06:23:20;6.50;;;4.00;;
25391;SDS011;13329;48.402;11.718;2022-07-23T06:25:45;8.23;;;4.10;;
25391;SDS011;13329;48.402;11.718;2022-07-23T06:28:11;6.30;;;3.83;;
25391;SDS011;13329;48.402;11.718;2022-07-23T06:30:36;5.63;;;3.50;;
25391;SDS011;13329;48.402;11.718;2022-07-23T06:33:01;5.53;;;3.30;;
25391;SDS011;13329;48.402;11.718;2022-07-23T06:35:26;6.20;;;4.20;;
25391;SDS011;13329;48.402;11.718;2022-07-23T06:37:51;8.30;;;3.73;;
25391;SDS011;13329;48.402;11.718;2022-07-23T06:40:16;5.83;;;4.07;;
25391;SDS011;13329;48.402;11.718;2022-07-23T06:42:42;6.40;;;3.80;;
25391;SDS011;13329;48.402;11.718;2022-07-23T06:45:07;7.47;;;4.15;;
25391;SDS011;13329;48.402;11.718;2022-07-23T06:47:32;5.43;;;3.80;;
25391;SDS011;13329;48.402;11.718;2022-07-23T06:49:57;6.97;;;3.63;;
25391;SDS011;13329;48.402;11.718;2022-07-23T06:52:23;6.85;;;3.85;;
25391;SDS011;13329;48.402;11.718;2022-07-23T06:54:48;5.33;;;4.00;;
25391;SDS011;13329;48.402;11.718;2022-07-23T06:57:14;6.60;;;3.50;;
25391;SDS011;13329;48.402;11.718;2022-07-23T06:59:39;6.80;;;3.97;;
25391;SDS011;13329;48.402;11.718;2022-07-23T07:02:05;10.70;;;4.07;;
25391;SDS011;13329;48.402;11.718;2022-07-23T07:04:30;7.43;;;3.85;;
25391;SDS011;13329;48.402;11.718;2022-07-23T07:06:56;6.20;;;4.03;;
25391;SDS011;13329;48.402;11.718;2022-07-23T07:09:22;10.43;;;4.05;;
25391;SDS011;13329;48.402;11.718;2022-07-23T07:11:47;7.00;;;3.47;;
25391;SDS011;13329;48.402;11.718;2022-07-23T07:14:12;5.90;;;3.97;;
25391;SDS011;13329;48.402;11.718;2022-07-23T07:16:37;10.03;;;4.40;;
25391;SDS011;13329;48.402;11.718;2022-07-23T07:19:02;6.30;;;4.03;;
25391;SDS011;13329;48.402;11.718;2022-07-23T07:21:28;6.57;;;3.83;;
25391;SDS011;13329;48.402;11.718;2022-07-23T07:23:53;7.57;;;4.30;;
25391;SDS011;13329;48.402;11.718;2022-07-23T07:26:18;8.17;;;4.47;;
25391;SDS011;13329;48.402;11.718;2022-07-23T07:28:43;7.13;;;4.03;;
25391;SDS011;13329;48.402;11.718;2022-07-23T07:31:08;6.72;;;3.75;;
25391;SDS011;13329;48.402;11.718;2022-07-23T07:33:33;5.93;;;3.83;;
25391;SDS011;13329;48.402;11.718;2022-07-23T07:35:59;8.60;;;4.57;;
25391;SDS011;13329;48.402;11.718;2022-07-23T07:38:25;7.80;;;4.47;;
25391;SDS011;13329;48.402;11.718;2022-07-23T07:40:50;7.87;;;4.97;;
25391;SDS011;13329;48.402;11.718;2022-07-23T07:43:15;6.67;;;4.20;;
25391;SDS011;13329;48.402;11.718;2022-07-23T07:45:40;7.67;;;4.87;;
25391;SDS011;13329;48.402;11.718;2022-07-23T07:48:06;8.23;;;4.53;;
25391;SDS011;13329;48.402;11.718;2022-07-23T07:50:31;6.83;;;4.37;;
25391;SDS011;13329;48.402;11.718;2022-07-23T07:52:56;9.13;;;4.70;;
25391;SDS011;13329;48.402;11.718;2022-07-23T07:55:21;9.45;;;4.90;;
25391;SDS011;13329;48.402;11.718;2022-07-23T07:57:46;9.03;;;4.83;;
25391;SDS011;13329;48.402;11.718;2022-07-23T08:00:12;6.83;;;4.40;;
25391;SDS011;13329;48.402;11.718;2022-07-23T08:02:41;9.70;;;5.07;;
25391;SDS011;13329;48.402;11.718;2022-07-23T08:05:07;8.07;;;4.95;;
25391;SDS011;13329;48.402;11.718;2022-07-23T08:07:32;9.98;;;5.10;;
25391;SDS011;13329;48.402;11.718;2022-07-23T08:09:57;6.20;;;4.20;;
25391;SDS011;13329;48.402;11.718;2022-07-23T08:12:22;7.50;;;4.87;;
25391;SDS011;13329;48.402;11.718;2022-07-23T08:14:47;6.67;;;4.53;;
25391;SDS011;13329;48.402;11.718;2022-07-23T08:17:12;9.60;;;4.75;;
25391;SDS011;13329;48.402;11.718;2022-07-23T08:19:38;10.67;;;4.70;;
25391;SDS011;13329;48.402;11.718;2022-07-23T08:22:03;8.68;;;5.15;;
25391;SDS011;13329;48.402;11.718;2022-07-23T08:24:28;8.00;;;5.40;;
25391;SDS011;13329;48.402;11.718;2022-07-23T08:26:53;8.70;;;5.30;;
25391;SDS011;13329;48.402;11.718;2022-07-23T08:29:18;10.17;;;5.27;;
25391;SDS011;13329;48.402;11.718;2022-07-23T08:31:43;8.20;;;5.33;;
25391;SDS011;13329;48.402;11.718;2022-07-23T08:34:10;7.85;;;4.93;;
25391;SDS011;13329;48.402;11.718;2022-07-23T08:36:35;8.48;;;5.45;;
25391;SDS011;13329;48.402;11.718;2022-07-23T08:39:01;7.57;;;5.28;;
25391;SDS011;13329;48.402;11.718;2022-07-23T08:41:28;9.77;;;5.30;;
25391;SDS011;13329;48.402;11.718;2022-07-23T08:43:53;9.07;;;5.40;;
25391;SDS011;13329;48.402;11.718;2022-07-23T08:46:19;8.30;;;4.67;;
25391;SDS011;13329;48.402;11.718;2022-07-23T08:48:44;7.63;;;4.45;;
25391;SDS011;13329;48.402;11.718;2022-07-23T08:51:11;6.82;;;4.85;;
25391;SDS011;13329;48.402;11.718;2022-07-23T08:53:37;8.43;;;5.10;;
25391;SDS011;13329;48.402;11.718;2022-07-23T08:56:03;10.35;;;5.15;;
25391;SDS011;13329;48.402;11.718;2022-07-23T08:58:29;7.97;;;5.60;;
25391;SDS011;13329;48.402;11.718;2022-07-23T09:00:54;7.90;;;5.03;;
25391;SDS011;13329;48.402;11.718;2022-07-23T09:03:25;10.05;;;5.22;;
25391;SDS011;13329;48.402;11.718;2022-07-23T09:05:51;8.63;;;5.25;;
25391;SDS011;13329;48.402;11.718;2022-07-23T09:08:17;10.88;;;5.22;;
25391;SDS011;13329;48.402;11.718;2022-07-23T09:15:51;10.23;;;5.78;;
25391;SDS011;13329;48.402;11.718;2022-07-23T09:18:17;9.57;;;5.43;;
25391;SDS011;13329;48.402;11.718;2022-07-23T09:20:43;10.68;;;5.57;;
25391;SDS011;13329;48.402;11.718;2022-07-23T09:23:08;8.48;;;5.05;;
25391;SDS011;13329;48.402;11.718;2022-07-23T09:25:33;8.65;;;5.00;;
25391;SDS011;13329;48.402;11.718;2022-07-23T09:27:59;7.57;;;4.97;;
25391;SDS011;13329;48.402;11.718;2022-07-23T09:30:28;13.00;;;5.60;;
25391;SDS011;13329;48.402;11.718;2022-07-23T09:33:03;7.30;;;4.53;;
25391;SDS011;13329;48.402;11.718;2022-07-23T09:38:14;8.68;;;5.18;;
25391;SDS011;13329;48.402;11.718;2022-07-23T09:40:39;6.75;;;4.13;;
25391;SDS011;13329;48.402;11.718;2022-07-23T09:43:05;8.53;;;4.30;;
25391;SDS011;13329;48.402;11.718;2022-07-23T09:45:30;10.27;;;4.37;;
25391;SDS011;13329;48.402;11.718;2022-07-23T09:50:36;8.82;;;4.45;;
25391;SDS011;13329;48.402;11.718;2022-07-23T09:53:01;9.93;;;4.87;;
25391;SDS011;13329;48.402;11.718;2022-07-23T09:55:30;6.80;;;4.80;;
25391;SDS011;13329;48.402;11.718;2022-07-23T10:00:25;7.45;;;4.70;;
25391;SDS011;13329;48.402;11.718;2022-07-23T10:02:50;6.57;;;4.43;;
25391;SDS011;13329;48.402;11.718;2022-07-23T10:05:16;5.45;;;3.72;;
25391;SDS011;13329;48.402;11.718;2022-07-23T10:07:41;7.10;;;4.20;;
25391;SDS011;13329;48.402;11.718;2022-07-23T10:10:07;6.15;;;4.03;;
25391;SDS011;13329;48.402;11.718;2022-07-23T10:12:33;4.72;;;3.50;;
25391;SDS011;13329;48.402;11.718;2022-07-23T10:15:00;6.13;;;3.70;;
25391;SDS011;13329;48.402;11.718;2022-07-23T10:17:29;7.03;;;3.77;;
25391;SDS011;13329;48.402;11.718;2022-07-23T10:19:54;8.40;;;4.25;;
25391;SDS011;13329;48.402;11.718;2022-07-23T10:22:20;4.63;;;3.63;;
25391;SDS011;13329;48.402;11.718;2022-07-23T10:24:58;7.63;;;4.22;;
25391;SDS011;13329;48.402;11.718;2022-07-23T10:30:31;6.47;;;4.00;;
25391;SDS011;13329;48.402;11.718;2022-07-23T10:37:45;7.50;;;4.68;;
25391;SDS011;13329;48.402;11.718;2022-07-23T10:42:37;8.23;;;4.37;;
25391;SDS011;13329;48.402;11.718;2022-07-23T10:45:23;7.25;;;4.53;;
25391;SDS011;13329;48.402;11.718;2022-07-23T10:47:48;6.32;;;4.35;;
25391;SDS011;13329;48.402;11.718;2022-07-23T10:52:42;7.53;;;4.32;;
25391;SDS011;13329;48.402;11.718;2022-07-23T10:57:52;7.20;;;4.50;;
25391;SDS011;13329;48.402;11.718;2022-07-23T11:00:24;6.10;;;4.43;;
25391;SDS011;13329;48.402;11.718;2022-07-23T11:02:54;8.13;;;4.70;;
25391;SDS011;13329;48.402;11.718;2022-07-23T11:05:23;6.38;;;4.10;;
25391;SDS011;13329;48.402;11.718;2022-07-23T11:08:09;8.05;;;5.32;;
25391;SDS011;13329;48.402;11.718;2022-07-23T11:10:37;7.82;;;4.57;;
25391;SDS011;13329;48.402;11.718;2022-07-23T11:34:28;9.32;;;4.82;;
25391;SDS011;13329;48.402;11.718;2022-07-23T11:36:54;10.52;;;5.00;;
25391;SDS011;13329;48.402;11.718;2022-07-23T11:39:20;6.20;;;4.63;;
25391;SDS011;13329;48.402;11.718;2022-07-23T11:41:45;6.57;;;4.25;;
25391;SDS011;13329;48.402;11.718;2022-07-23T11:44:30;8.38;;;5.00;;
25391;SDS011;13329;48.402;11.718;2022-07-23T11:46:56;9.32;;;5.10;;
25391;SDS011;13329;48.402;11.718;2022-07-23T11:49:22;5.15;;;4.07;;
25391;SDS011;13329;48.402;11.718;2022-07-23T11:51:53;7.97;;;4.53;;
25391;SDS011;13329;48.402;11.718;2022-07-23T11:54:26;7.10;;;4.30;;
25391;SDS011;13329;48.402;11.718;2022-07-23T11:56:58;6.97;;;4.30;;
25391;SDS011;13329;48.402;11.718;2022-07-23T11:59:24;5.95;;;3.63;;
25391;SDS011;13329;48.402;11.718;2022-07-23T12:01:59;4.75;;;3.78;;
25391;SDS011;13329;48.402;11.718;2022-07-23T12:04:47;5.03;;;3.45;;
25391;SDS011;13329;48.402;11.718;2022-07-23T12:07:23;7.35;;;4.07;;
25391;SDS011;13329;48.402;11.718;2022-07-23T12:09:48;5.47;;;3.80;;
25391;SDS011;13329;48.402;11.718;2022-07-23T12:12:13;5.32;;;2.95;;
25391;SDS011;13329;48.402;11.718;2022-07-23T12:14:47;9.50;;;3.60;;
25391;SDS011;13329;48.402;11.718;2022-07-23T12:17:12;6.22;;;3.97;;
25391;SDS011;13329;48.402;11.718;2022-07-23T12:19:37;6.57;;;4.20;;
25391;SDS011;13329;48.402;11.718;2022-07-23T12:22:03;5.47;;;2.70;;
25391;SDS011;13329;48.402;11.718;2022-07-23T12:24:29;6.75;;;3.30;;
25391;SDS011;13329;48.402;11.718;2022-07-23T12:27:12;5.13;;;3.72;;
25391;SDS011;13329;48.402;11.718;2022-07-23T12:29:38;6.00;;;3.05;;
25391;SDS011;13329;48.402;11.718;2022-07-23T12:32:16;6.57;;;3.27;;
25391;SDS011;13329;48.402;11.718;2022-07-23T12:34:41;6.57;;;3.90;;
25391;SDS011;13329;48.402;11.718;2022-07-23T12:37:07;8.20;;;4.55;;
25391;SDS011;13329;48.402;11.718;2022-07-23T12:39:32;5.23;;;3.90;;
25391;SDS011;13329;48.402;11.718;2022-07-23T12:41:57;6.07;;;3.40;;
25391;SDS011;13329;48.402;11.718;2022-07-23T12:44:22;6.63;;;4.13;;
25391;SDS011;13329;48.402;11.718;2022-07-23T12:46:54;5.53;;;3.90;;
25391;SDS011;13329;48.402;11.718;2022-07-23T12:49:25;5.72;;;4.20;;
25391;SDS011;13329;48.402;11.718;2022-07-23T12:51:51;6.63;;;4.38;;
25391;SDS011;13329;48.402;11.718;2022-07-23T12:54:16;8.33;;;4.57;;
25391;SDS011;13329;48.402;11.718;2022-07-23T12:56:44;4.67;;;2.83;;
25391;SDS011;13329;48.402;11.718;2022-07-23T12:59:10;6.50;;;4.57;;
25391;SDS011;13329;48.402;11.718;2022-07-23T13:01:36;5.18;;;2.72;;
25391;SDS011;13329;48.402;11.718;2022-07-23T13:06:37;6.40;;;4.20;;
25391;SDS011;13329;48.402;11.718;2022-07-23T13:09:03;7.53;;;4.25;;
25391;SDS011;13329;48.402;11.718;2022-07-23T13:11:28;7.90;;;4.82;;
25391;SDS011;13329;48.402;11.718;2022-07-23T13:13:53;5.87;;;3.10;;
25391;SDS011;13329;48.402;11.718;2022-07-23T13:16:18;6.50;;;4.23;;
25391;SDS011;13329;48.402;11.718;2022-07-23T13:18:43;7.57;;;4.53;;
25391;SDS011;13329;48.402;11.718;2022-07-23T13:21:09;6.93;;;4.50;;
25391;SDS011;13329;48.402;11.718;2022-07-23T13:23:34;7.23;;;4.80;;
25391;SDS011;13329;48.402;11.718;2022-07-23T13:25:59;8.45;;;5.03;;
25391;SDS011;13329;48.402;11.718;2022-07-23T13:28:25;7.07;;;4.67;;
25391;SDS011;13329;48.402;11.718;2022-07-23T13:30:50;8.87;;;4.60;;
25391;SDS011;13329;48.402;11.718;2022-07-23T13:33:19;6.85;;;4.63;;
25391;SDS011;13329;48.402;11.718;2022-07-23T13:35:45;6.50;;;4.20;;
25391;SDS011;13329;48.402;11.718;2022-07-23T13:38:10;9.57;;;4.57;;
25391;SDS011;13329;48.402;11.718;2022-07-23T13:40:36;6.82;;;4.55;;
25391;SDS011;13329;48.402;11.718;2022-07-23T13:43:04;7.03;;;4.75;;
25391;SDS011;13329;48.402;11.718;2022-07-23T13:45:29;12.95;;;4.88;;
25391;SDS011;13329;48.402;11.718;2022-07-23T13:47:54;7.40;;;3.47;;
25391;SDS011;13329;48.402;11.718;2022-07-23T13:50:19;4.60;;;3.53;;
25391;SDS011;13329;48.402;11.718;2022-07-23T13:52:44;4.10;;;2.43;;
25391;SDS011;13329;48.402;11.718;2022-07-23T13:55:10;8.70;;;5.07;;
25391;SDS011;13329;48.402;11.718;2022-07-23T13:57:35;7.13;;;3.97;;
25391;SDS011;13329;48.402;11.718;2022-07-23T14:00:00;8.50;;;4.20;;
25391;SDS011;13329;48.402;11.718;2022-07-23T14:02:27;4.97;;;3.20;;
25391;SDS011;13329;48.402;11.718;2022-07-23T14:04:52;7.37;;;4.43;;
25391;SDS011;13329;48.402;11.718;2022-07-23T14:07:17;8.03;;;4.67;;
25391;SDS011;13329;48.402;11.718;2022-07-23T14:09:42;6.30;;;3.30;;
25391;SDS011;13329;48.402;11.718;2022-07-23T14:12:07;6.17;;;4.40;;
25391;SDS011;13329;48.402;11.718;2022-07-23T14:14:33;8.02;;;4.43;;
25391;SDS011;13329;48.402;11.718;2022-07-23T14:16:58;7.78;;;4.97;;
25391;SDS011;13329;48.402;11.718;2022-07-23T14:19:23;7.55;;;5.00;;
25391;SDS011;13329;48.402;11.718;2022-07-23T14:21:49;9.73;;;5.70;;
25391;SDS011;13329;48.402;11.718;2022-07-23T14:24:14;5.83;;;3.87;;
25391;SDS011;13329;48.402;11.718;2022-07-23T14:26:39;7.13;;;4.68;;
25391;SDS011;13329;48.402;11.718;2022-07-23T14:29:05;8.48;;;4.65;;
25391;SDS011;13329;48.402;11.718;2022-07-23T14:31:30;8.57;;;5.57;;
25391;SDS011;13329;48.402;11.718;2022-07-23T14:33:55;9.10;;;5.10;;
25391;SDS011;13329;48.402;11.718;2022-07-23T14:36:20;11.48;;;5.63;;
25391;SDS011;13329;48.402;11.718;2022-07-23T14:38:46;9.10;;;4.57;;
25391;SDS011;13329;48.402;11.718;2022-07-23T14:41:11;7.65;;;5.07;;
25391;SDS011;13329;48.402;11.718;2022-07-23T14:43:36;7.85;;;5.45;;
25391;SDS011;13329;48.402;11.718;2022-07-23T14:46:01;8.32;;;5.05;;
25391;SDS011;13329;48.402;11.718;2022-07-23T14:48:26;8.00;;;5.00;;
25391;SDS011;13329;48.402;11.718;2022-07-23T14:50:52;8.98;;;4.88;;
25391;SDS011;13329;48.402;11.718;2022-07-23T14:53:17;7.80;;;5.27;;
25391;SDS011;13329;48.402;11.718;2022-07-23T14:55:42;9.33;;;5.27;;
25391;SDS011;13329;48.402;11.718;2022-07-23T14:58:07;8.33;;;5.47;;
25391;SDS011;13329;48.402;11.718;2022-07-23T15:00:32;7.70;;;4.97;;
25391;SDS011;13329;48.402;11.718;2022-07-23T15:02:58;10.55;;;4.95;;
25391;SDS011;13329;48.402;11.718;2022-07-23T15:05:23;9.07;;;5.37;;
25391;SDS011;13329;48.402;11.718;2022-07-23T15:07:48;9.17;;;5.00;;
25391;SDS011;13329;48.402;11.718;2022-07-23T15:10:14;8.25;;;4.60;;
25391;SDS011;13329;48.402;11.718;2022-07-23T15:12:39;7.63;;;5.15;;
25391;SDS011;13329;48.402;11.718;2022-07-23T15:15:04;9.57;;;5.40;;
25391;SDS011;13329;48.402;11.718;2022-07-23T15:17:29;7.30;;;4.95;;
25391;SDS011;13329;48.402;11.718;2022-07-23T15:19:55;7.77;;;5.60;;